Time;durP1;ratioP1;P1;durP2;ratioP2;P2;SDS_P1;SDS_P2;PMS_P1;PMS_P2;Temp;Humidity;BMP_temperature;BMP_pressure;BME280_temperature;BME280_humidity;BME280_pressure;Samples;Min_cycle;Max_cycle;Signal;HPM_P1;HPM_P2
2023/04/19 04:11:20;;;;;;;8.80;6.78;;;;;;;9.01;100.00;100103.31;5563258;32;157873;-88
2023/04/19 04:14:24;;;;;;;10.60;6.82;;;;;;;9.01;100.00;100105.97;5551012;32;33734;-87
2023/04/19 04:17:27;;;;;;;11.57;7.43;;;;;;;9.06;100.00;100111.06;5552580;32;34480;-87
2023/04/19 04:20:30;;;;;;;12.05;7.03;;;;;;;9.10;100.00;100109.13;5553680;32;33484;-88
2023/04/19 04:23:34;;;;;;;11.43;7.03;;;;;;;9.16;100.00;100108.81;5555293;32;33526;-86
2023/04/19 04:26:38;;;;;;;9.73;6.05;;;;;;;9.21;100.00;100106.78;5570180;32;34821;-86
2023/04/19 04:29:42;;;;;;;11.68;6.62;;;;;;;9.34;98.60;100100.94;5562654;32;33868;-86
2023/04/19 04:32:46;;;;;;;8.80;6.45;;;;;;;9.40;98.77;100108.56;5546556;32;33992;-85
2023/04/19 04:35:50;;;;;;;9.55;6.62;;;;;;;9.51;96.71;100102.72;5547231;32;33604;-87
2023/04/19 04:38:55;;;;;;;9.88;6.25;;;;;;;9.61;93.75;100108.44;5546969;32;34499;-85
2023/04/19 04:41:58;;;;;;;10.15;6.40;;;;;;;9.66;93.98;100095.81;5549138;32;33395;-86
2023/04/19 04:45:02;;;;;;;9.77;6.20;;;;;;;9.80;92.31;100103.03;5560663;32;33990;-86
2023/04/19 04:48:05;;;;;;;8.48;6.00;;;;;;;9.88;90.19;100106.19;5546430;32;34060;-86
2023/04/19 04:51:08;;;;;;;12.15;6.07;;;;;;;10.10;89.34;100113.88;5544963;32;33579;-86
2023/04/19 04:54:11;;;;;;;10.23;6.70;;;;;;;10.15;88.66;100110.12;5563369;32;33456;-86
2023/04/19 04:57:14;;;;;;;10.13;6.30;;;;;;;10.28;86.19;100107.69;5564665;32;34205;-86
2023/04/19 05:00:17;;;;;;;10.23;6.53;;;;;;;10.30;87.32;100101.34;5557679;32;33510;-85
2023/04/19 05:03:21;;;;;;;8.20;6.28;;;;;;;10.37;87.21;100099.25;5565064;32;34127;-86
2023/04/19 05:06:23;;;;;;;8.65;5.90;;;;;;;10.44;87.43;100097.13;5562333;32;33909;-84
2023/04/19 05:09:27;;;;;;;8.23;6.28;;;;;;;10.42;84.54;100094.56;5575460;32;33966;-86
2023/04/19 05:12:30;;;;;;;10.25;6.40;;;;;;;10.48;84.71;100091.59;5575187;32;34161;-86
2023/04/19 05:15:33;;;;;;;11.90;6.70;;;;;;;10.56;84.74;100091.16;5560746;32;34325;-86
2023/04/19 05:18:35;;;;;;;9.05;6.20;;;;;;;10.75;83.90;100095.47;5550403;32;33700;-86
2023/04/19 05:21:39;;;;;;;9.23;6.32;;;;;;;11.04;80.44;100096.53;5525733;32;33271;-86
2023/04/19 05:24:43;;;;;;;9.02;5.78;;;;;;;11.55;75.88;100100.72;5534529;32;34374;-86
2023/04/19 05:27:45;;;;;;;9.82;5.82;;;;;;;12.46;71.91;100100.69;5542545;32;33808;-86
2023/04/19 05:30:48;;;;;;;10.52;5.97;;;;;;;12.66;67.84;100096.78;5542956;32;34900;-86
2023/04/19 05:33:51;;;;;;;7.10;5.75;;;;;;;13.18;66.78;100089.09;5539804;32;33552;-87
2023/04/19 05:36:54;;;;;;;8.40;5.80;;;;;;;13.45;64.01;100099.75;5530594;32;34463;-86
2023/04/19 05:39:58;;;;;;;8.55;6.12;;;;;;;12.97;65.29;100096.66;5530690;32;33229;-86
2023/04/19 05:43:00;;;;;;;8.27;6.50;;;;;;;13.52;64.91;100097.53;5540872;32;34004;-86
2023/04/19 05:46:03;;;;;;;11.77;5.97;;;;;;;14.10;61.86;100101.69;5541438;32;33624;-86
2023/04/19 05:49:06;;;;;;;10.13;5.70;;;;;;;14.58;60.03;100098.34;5524661;32;33682;-87
2023/04/19 05:52:13;;;;;;;10.18;6.70;;;;;;;14.81;59.22;100099.41;5538760;32;33888;-86
2023/04/19 05:55:17;;;;;;;8.25;5.87;;;;;;;15.19;57.50;100099.41;5550527;32;33361;-86
2023/04/19 05:58:22;;;;;;;9.45;6.15;;;;;;;15.11;59.04;100097.28;5547717;32;34433;-87
2023/04/19 06:01:24;;;;;;;10.13;5.93;;;;;;;14.58;58.95;100097.50;5547315;32;34578;-88
2023/04/19 06:07:50;;;;;;;8.55;6.53;;;;;;;13.94;61.08;100084.06;5531251;32;33956;-87
2023/04/19 06:11:03;;;;;;;13.45;6.62;;;;;;;13.51;63.21;100087.84;5530265;32;33635;-87
2023/04/19 06:14:27;;;;;;;11.90;6.60;;;;;;;14.08;62.62;100098.28;5529722;32;34028;-87
2023/04/19 06:17:30;;;;;;;12.93;6.68;;;;;;;13.63;65.09;100085.31;5543087;32;33740;-87
2023/04/19 06:20:33;;;;;;;9.70;7.07;;;;;;;13.41;66.44;100084.91;5543550;32;35033;-88
2023/04/19 06:23:35;;;;;;;10.10;6.95;;;;;;;13.32;68.53;100085.50;5525899;32;33647;-87
2023/04/19 06:26:39;;;;;;;9.23;6.72;;;;;;;13.08;69.80;100088.84;5520663;32;33592;-88
2023/04/19 06:29:42;;;;;;;12.98;6.43;;;;;;;13.61;67.53;100074.75;5519156;32;33928;-87
2023/04/19 06:32:44;;;;;;;9.32;6.45;;;;;;;13.95;66.66;100082.25;5522375;32;33402;-89
2023/04/19 06:35:47;;;;;;;12.10;6.55;;;;;;;14.70;63.28;100077.94;5530351;32;34747;-87
2023/04/19 06:38:50;;;;;;;7.35;6.10;;;;;;;15.29;59.75;100075.53;5531225;32;34085;-87
2023/04/19 06:41:53;;;;;;;9.32;6.43;;;;;;;15.57;58.90;100073.44;5536106;32;34312;-87
2023/04/19 06:44:56;;;;;;;8.10;5.97;;;;;;;15.72;59.33;100066.94;5531035;32;34339;-88
2023/04/19 06:47:59;;;;;;;7.82;5.90;;;;;;;15.75;57.24;100076.53;5543651;32;34791;-87
2023/04/19 06:51:03;;;;;;;10.07;5.57;;;;;;;16.62;53.11;100069.84;5549711;32;33906;-87
2023/04/19 06:54:06;;;;;;;7.40;5.55;;;;;;;17.05;50.10;100070.87;5546270;32;33464;-87
2023/04/19 06:57:09;;;;;;;8.07;5.35;;;;;;;17.10;51.42;100068.66;5533978;32;35254;-86
2023/04/19 07:00:12;;;;;;;9.52;5.55;;;;;;;17.42;50.19;100067.00;5540609;32;33557;-86
2023/04/19 07:03:15;;;;;;;5.57;5.07;;;;;;;18.73;47.03;100066.59;5536827;32;33413;-88
2023/04/19 07:06:18;;;;;;;7.90;4.93;;;;;;;20.04;42.06;100063.69;5537769;32;34521;-87
2023/04/19 07:09:21;;;;;;;6.78;4.70;;;;;;;20.33;40.16;100073.50;5559179;32;34102;-88
2023/04/19 07:12:24;;;;;;;7.15;4.57;;;;;;;21.95;37.68;100059.50;5539824;32;33830;-88
2023/04/19 07:15:27;;;;;;;5.30;4.75;;;;;;;22.13;36.53;100061.28;5542926;32;33426;-88
2023/04/19 07:18:30;;;;;;;6.10;4.45;;;;;;;21.71;36.77;100055.59;5549290;32;33920;-88
2023/04/19 07:21:33;;;;;;;7.30;4.05;;;;;;;22.50;36.29;100057.41;5546612;32;33959;-90
2023/04/19 07:24:39;;;;;;;9.05;4.25;;;;;;;22.51;35.28;100058.25;5527297;32;34052;-88
2023/04/19 07:27:41;;;;;;;5.80;3.72;;;;;;;22.92;33.12;100053.03;5546270;32;34569;-88
2023/04/19 07:30:44;;;;;;;6.55;4.28;;;;;;;23.66;32.09;100057.69;5536805;32;33730;-87
2023/04/19 07:33:47;;;;;;;8.10;3.80;;;;;;;22.32;33.34;100054.78;5545203;32;33361;-88
2023/04/19 07:36:50;;;;;;;4.22;3.80;;;;;;;21.59;34.39;100052.28;5520616;32;34082;-87
2023/04/19 07:39:53;;;;;;;4.62;3.37;;;;;;;20.39;36.59;100057.75;5539677;32;35274;-89
2023/04/19 07:42:56;;;;;;;9.15;4.50;;;;;;;20.85;36.61;100052.44;5548209;32;34564;-88
2023/04/19 07:45:58;;;;;;;5.47;4.03;;;;;;;19.93;37.90;100048.50;5547308;32;34833;-89
2023/04/19 07:49:02;;;;;;;8.10;4.43;;;;;;;20.01;38.25;100049.69;5547446;32;33768;-89
2023/04/19 07:52:06;;;;;;;6.45;4.55;;;;;;;19.30;39.48;100046.34;5529587;32;33661;-88
2023/04/19 07:55:09;;;;;;;6.62;4.30;;;;;;;20.64;37.99;100049.97;5533514;32;34223;-89
2023/04/19 07:58:13;;;;;;;9.90;4.47;;;;;;;20.68;37.82;100043.28;5537038;32;33696;-89
2023/04/19 08:01:17;;;;;;;5.37;4.57;;;;;;;22.03;37.11;100047.91;5540923;32;34202;-89
2023/04/19 08:04:21;;;;;;;7.22;4.05;;;;;;;22.43;34.54;100040.16;5536434;32;35237;-89
2023/04/19 08:07:25;;;;;;;7.07;4.68;;;;;;;19.94;37.23;100046.66;5539962;32;33734;-89
2023/04/19 08:10:29;;;;;;;5.90;4.28;;;;;;;18.70;40.23;100042.66;5535576;32;33887;-88
2023/04/19 08:13:31;;;;;;;4.97;4.00;;;;;;;18.70;39.92;100043.53;5543333;32;34083;-87
2023/04/19 08:16:35;;;;;;;4.30;3.90;;;;;;;19.78;37.50;100036.50;5533628;32;33672;-88
2023/04/19 08:19:40;;;;;;;6.53;3.75;;;;;;;20.38;36.79;100043.44;5530226;32;34440;-89
2023/04/19 08:22:43;;;;;;;8.10;3.53;;;;;;;19.95;35.51;100048.38;5543919;32;33730;-88
2023/04/19 08:25:46;;;;;;;7.68;3.70;;;;;;;21.44;33.76;100040.34;5531022;32;34310;-88
2023/04/19 08:28:51;;;;;;;4.10;3.20;;;;;;;22.19;30.87;100047.16;5528218;32;33593;-89
2023/04/19 08:31:53;;;;;;;3.85;2.95;;;;;;;23.47;30.65;100041.81;5522508;32;34018;-88
2023/04/19 08:34:57;;;;;;;3.45;2.97;;;;;;;23.67;28.69;100039.56;5529652;32;34468;-88
2023/04/19 08:37:59;;;;;;;3.17;2.87;;;;;;;23.18;30.65;100037.69;5518498;32;34651;-88
2023/04/19 08:41:04;;;;;;;9.98;3.90;;;;;;;22.51;29.59;100032.09;5532274;32;34082;-87
2023/04/19 08:44:10;;;;;;;4.90;3.12;;;;;;;20.65;36.94;100030.97;5537018;32;33948;-87
2023/04/19 08:47:15;;;;;;;3.85;2.90;;;;;;;18.94;34.35;100025.31;5533909;32;33963;-87
2023/04/19 08:50:32;;;;;;;6.72;3.47;;;;;;;19.56;34.01;100029.63;5515976;32;33510;-87
2023/04/19 08:53:48;;;;;;;6.75;3.20;;;;;;;18.56;33.46;100025.97;5531380;32;33992;-87
2023/04/19 08:56:52;;;;;;;7.70;4.00;;;;;;;18.88;35.15;100021.38;5549772;32;35892;-87
2023/04/19 08:59:56;;;;;;;7.18;3.58;;;;;;;19.69;34.39;100011.31;5561826;32;35145;-88
2023/04/19 09:02:59;;;;;;;5.47;4.37;;;;;;;19.09;36.11;100015.03;5547416;32;34421;-86
2023/04/19 09:06:03;;;;;;;8.10;4.28;;;;;;;18.04;39.03;100018.81;5536932;32;33451;-87
2023/04/19 09:09:27;;;;;;;5.32;3.97;;;;;;;18.58;39.77;100015.94;5529957;32;33834;-88
2023/04/19 09:12:42;;;;;;;7.18;4.22;;;;;;;19.20;39.51;100011.34;5511661;32;34456;-88
2023/04/19 09:15:45;;;;;;;7.05;4.37;;;;;;;19.75;37.95;100010.75;5534574;32;33724;-87
2023/04/19 09:19:00;;;;;;;6.15;4.12;;;;;;;19.05;37.96;100008.28;5524614;32;34637;-87
2023/04/19 09:22:21;;;;;;;10.13;5.20;;;;;;;21.16;36.98;100005.41;5510899;32;34054;-88
2023/04/19 09:25:27;;;;;;;8.55;5.05;;;;;;;22.44;35.24;100002.16;5514607;32;33884;-86
2023/04/19 09:28:33;;;;;;;8.15;4.75;;;;;;;23.08;36.86;100000.81;5539584;32;34092;-86
2023/04/19 09:31:37;;;;;;;9.25;5.12;;;;;;;23.71;32.13;100003.03;5533258;32;34947;-86
2023/04/19 09:34:59;;;;;;;7.62;5.80;;;;;;;22.47;34.44;99996.44;5516859;32;34721;-86
2023/04/19 09:38:03;;;;;;;6.93;5.60;;;;;;;21.38;36.96;99996.78;5528210;32;34121;-86
2023/04/19 09:41:09;;;;;;;9.95;5.97;;;;;;;21.78;36.06;99999.97;5530744;32;34400;-86
2023/04/19 09:44:14;;;;;;;11.30;6.30;;;;;;;22.54;36.55;99999.38;5524709;32;34066;-86
2023/04/19 09:47:22;;;;;;;7.22;5.85;;;;;;;23.02;34.02;99998.78;5537954;32;34107;-86
2023/04/19 09:50:25;;;;;;;9.35;6.45;;;;;;;22.84;36.88;99988.94;5541118;32;34098;-88
2023/04/19 09:53:32;;;;;;;11.80;5.95;;;;;;;23.27;34.79;99993.37;5554064;32;35279;-87
2023/04/19 09:56:37;;;;;;;9.07;6.20;;;;;;;24.41;33.15;99987.09;5524131;32;33634;-88
2023/04/19 09:59:40;;;;;;;10.48;5.93;;;;;;;24.28;32.29;99993.06;5531643;32;33612;-86
2023/04/19 10:02:46;;;;;;;8.55;5.03;;;;;;;25.57;30.51;99985.47;5535696;32;33911;-88
2023/04/19 10:05:51;;;;;;;6.37;5.12;;;;;;;27.34;28.41;99989.31;5538189;32;33773;-87
2023/04/19 10:08:55;;;;;;;10.25;5.87;;;;;;;29.23;24.91;99982.88;5543762;32;34118;-88
2023/04/19 10:12:00;;;;;;;10.38;7.12;;;;;;;26.09;29.58;99981.00;5526991;32;34140;-87
2023/04/19 10:15:23;;;;;;;9.55;6.07;;;;;;;25.56;28.86;99984.59;5546952;32;33698;-89
2023/04/19 10:18:26;;;;;;;8.90;6.57;;;;;;;24.42;31.11;99977.06;5540601;32;34264;-88
2023/04/19 10:21:30;;;;;;;11.80;6.75;;;;;;;22.68;35.00;99968.13;5548301;32;34754;-85
2023/04/19 10:24:33;;;;;;;10.18;7.93;;;;;;;23.18;35.13;99980.88;5550958;32;33989;-86
2023/04/19 10:27:36;;;;;;;9.60;7.22;;;;;;;23.51;33.59;99973.62;5553046;32;33874;-86
2023/04/19 10:30:53;;;;;;;11.40;7.47;;;;;;;23.59;34.38;99966.50;5549158;32;35156;-90
2023/04/19 10:33:56;;;;;;;8.98;6.93;;;;;;;22.12;38.53;99968.59;5548745;32;33487;-86
2023/04/19 10:37:01;;;;;;;11.63;7.25;;;;;;;22.23;38.29;99969.31;5541041;32;33624;-86
2023/04/19 10:40:06;;;;;;;9.52;6.97;;;;;;;20.23;40.70;99966.81;5528726;32;34599;-86
2023/04/19 10:43:12;;;;;;;7.93;6.50;;;;;;;18.90;42.10;99956.75;5539718;32;34525;-86
2023/04/19 10:46:34;;;;;;;9.32;6.32;;;;;;;18.74;41.97;99958.13;5547481;32;34593;-86
2023/04/19 10:49:45;;;;;;;9.13;6.57;;;;;;;18.52;41.49;99957.41;5557113;32;34580;-88
2023/04/19 10:52:48;;;;;;;7.07;5.72;;;;;;;18.91;42.17;99958.44;5535500;32;33579;-86
2023/04/19 10:55:51;;;;;;;9.95;6.10;;;;;;;20.49;40.47;99958.88;5532945;32;34775;-86
2023/04/19 10:59:01;;;;;;;7.22;5.70;;;;;;;21.10;36.56;99956.47;5532924;32;33603;-88
2023/04/19 11:02:27;;;;;;;7.32;5.65;;;;;;;20.84;34.89;99953.66;5524250;32;34467;-88
2023/04/19 11:06:17;;;;;;;7.82;5.80;;;;;;;20.61;35.65;99951.41;5533973;32;33601;-87
2023/04/19 11:09:37;;;;;;;10.37;6.17;;;;;;;21.55;35.14;99953.75;5527473;32;33643;-88
2023/04/19 11:12:42;;;;;;;9.35;6.10;;;;;;;22.80;32.79;99948.91;5532472;32;35249;-92
2023/04/19 11:15:45;;;;;;;11.35;5.53;;;;;;;20.78;35.83;99943.50;5532312;32;33946;-88
2023/04/19 11:18:48;;;;;;;6.28;5.68;;;;;;;23.18;33.60;99948.41;5540494;32;35014;-88
2023/04/19 11:21:51;;;;;;;6.85;6.15;;;;;;;22.99;32.76;99940.44;5532790;32;34110;-89
2023/04/19 11:24:54;;;;;;;5.82;5.20;;;;;;;21.79;33.06;99936.88;5530048;32;34609;-89
2023/04/19 11:27:59;;;;;;;9.20;5.97;;;;;;;21.49;34.07;99947.16;5523331;32;33978;-89
2023/04/19 11:31:03;;;;;;;9.13;5.93;;;;;;;20.56;35.06;99937.53;5529200;32;33356;-88
2023/04/19 11:34:06;;;;;;;9.60;6.28;;;;;;;20.62;35.98;99936.97;5517630;32;34136;-89
2023/04/19 11:37:10;;;;;;;8.38;7.25;;;;;;;20.07;39.72;99936.00;5521226;32;33717;-89
2023/04/19 11:40:17;;;;;;;10.30;8.05;;;;;;;19.55;41.98;99939.97;5525441;32;33689;-89
2023/04/19 11:43:20;;;;;;;9.77;7.57;;;;;;;18.88;45.11;99935.38;5529141;32;33970;-88
2023/04/19 11:46:23;;;;;;;9.43;7.62;;;;;;;18.82;45.16;99938.63;5524162;32;33929;-89
2023/04/19 11:49:30;;;;;;;10.85;7.78;;;;;;;18.37;45.86;99934.59;5528300;32;34224;-88
2023/04/19 11:52:34;;;;;;;11.23;8.82;;;;;;;18.36;46.69;99931.06;5525635;32;34122;-88
2023/04/19 11:55:37;;;;;;;11.63;8.52;;;;;;;17.76;49.18;99929.16;5531964;32;33760;-89
2023/04/19 11:58:47;;;;;;;12.43;7.93;;;;;;;17.96;49.43;99930.09;5531385;32;33800;-89
2023/04/19 12:01:50;;;;;;;13.70;7.87;;;;;;;18.03;49.56;99928.56;5535729;32;33514;-88
2023/04/19 12:04:53;;;;;;;14.52;7.72;;;;;;;17.96;46.59;99935.47;5515653;32;34534;-89
2023/04/19 12:08:08;;;;;;;9.40;8.00;;;;;;;17.81;47.19;99932.28;5530239;32;34632;-88
2023/04/19 12:11:15;;;;;;;11.10;8.07;;;;;;;17.84;47.35;99932.00;5533409;32;33739;-87
2023/04/19 12:14:22;;;;;;;11.10;8.07;;;;;;;17.62;48.56;99930.34;5528419;32;33890;-85
2023/04/19 12:17:25;;;;;;;10.55;8.80;;;;;;;17.73;48.82;99916.00;5531494;32;33829;-85
2023/04/19 12:20:32;;;;;;;14.45;9.23;;;;;;;17.79;50.22;99918.16;5529367;32;34730;-86
2023/04/19 12:23:36;;;;;;;15.93;10.50;;;;;;;17.62;52.71;99916.94;5533429;32;34470;-86
2023/04/19 12:26:55;;;;;;;12.52;10.70;;;;;;;17.38;53.02;99918.94;5531933;32;34009;-86
2023/04/19 12:29:58;;;;;;;14.50;11.05;;;;;;;17.20;53.92;99921.34;5530241;32;33696;-88
2023/04/19 12:33:01;;;;;;;13.90;11.05;;;;;;;17.07;54.16;99921.56;5547167;32;34038;-88
2023/04/19 12:36:04;;;;;;;16.00;10.15;;;;;;;17.01;55.59;99919.38;5538727;32;34131;-87
2023/04/19 12:39:07;;;;;;;13.98;10.15;;;;;;;17.51;54.68;99917.87;5528499;32;34400;-87
2023/04/19 12:42:12;;;;;;;16.15;10.65;;;;;;;17.34;54.29;99919.31;5519792;32;35259;-89
2023/04/19 12:45:15;;;;;;;13.00;10.82;;;;;;;17.39;54.03;99922.47;5530663;32;34377;-87
2023/04/19 12:48:18;;;;;;;12.65;9.93;;;;;;;17.47;54.10;99917.31;5534131;32;33829;-87
2023/04/19 12:51:21;;;;;;;13.02;9.90;;;;;;;17.76;54.18;99921.94;5531939;32;35061;-87
2023/04/19 12:54:24;;;;;;;11.15;9.57;;;;;;;18.08;53.42;99916.59;5523759;32;34554;-87
2023/04/19 12:57:27;;;;;;;13.10;9.63;;;;;;;18.00;53.54;99915.41;5523563;32;34033;-87
2023/04/19 13:00:30;;;;;;;11.40;10.10;;;;;;;18.00;53.17;99919.94;5515246;32;34345;-88
2023/04/19 13:03:35;;;;;;;14.52;9.68;;;;;;;18.11;53.12;99908.28;5530460;32;34047;-89
2023/04/19 13:06:39;;;;;;;16.77;9.68;;;;;;;17.81;54.66;99913.50;5532243;32;34652;-88
2023/04/19 13:09:42;;;;;;;13.88;9.68;;;;;;;18.24;52.91;99906.19;5533094;32;34013;-88
2023/04/19 13:12:45;;;;;;;10.45;9.30;;;;;;;18.27;52.46;99905.91;5527511;32;34524;-86
2023/04/19 13:15:47;;;;;;;10.75;8.60;;;;;;;18.18;52.85;99902.22;5512255;32;33832;-87
2023/04/19 13:18:51;;;;;;;11.07;9.63;;;;;;;18.31;51.86;99906.50;5515563;32;33850;-86
2023/04/19 13:21:54;;;;;;;13.07;8.90;;;;;;;18.35;52.34;99902.53;5530547;32;34493;-86
2023/04/19 13:24:58;;;;;;;11.95;8.80;;;;;;;18.62;51.55;99910.91;5536402;32;33904;-88
2023/04/19 13:28:01;;;;;;;12.57;8.95;;;;;;;18.63;52.64;99909.91;5539455;32;34029;-87
2023/04/19 13:31:04;;;;;;;10.40;8.65;;;;;;;18.65;52.03;99908.78;5551058;32;33916;-85
2023/04/19 13:34:08;;;;;;;16.87;8.85;;;;;;;18.37;52.48;99903.25;5549240;32;33634;-86
2023/04/19 13:37:11;;;;;;;8.63;7.72;;;;;;;18.39;55.96;99903.94;5539235;32;34676;-86
2023/04/19 13:40:14;;;;;;;13.20;8.57;;;;;;;18.31;50.72;99909.19;5530959;32;33965;-85
2023/04/19 13:43:21;;;;;;;13.57;10.57;;;;;;;18.22;50.60;99910.00;5532872;32;33873;-86
2023/04/19 13:46:24;;;;;;;14.15;11.70;;;;;;;17.97;54.21;99904.09;5541806;32;33868;-86
2023/04/19 13:49:27;;;;;;;20.05;15.02;;;;;;;17.87;57.84;99912.97;5539917;32;34490;-86
2023/04/19 13:52:30;;;;;;;21.40;14.15;;;;;;;17.19;62.36;99905.41;5534401;32;34119;-86
2023/04/19 13:55:33;;;;;;;17.27;14.10;;;;;;;17.00;64.51;99906.94;5548656;32;33732;-84
2023/04/19 13:58:36;;;;;;;21.42;15.70;;;;;;;16.79;64.85;99902.41;5533752;32;34095;-84
2023/04/19 14:01:39;;;;;;;17.33;14.77;;;;;;;16.44;66.97;99899.00;5535405;32;34176;-84
2023/04/19 14:04:43;;;;;;;21.42;14.35;;;;;;;16.50;67.27;99894.13;5542623;32;34240;-86
2023/04/19 14:07:45;;;;;;;16.80;13.65;;;;;;;17.12;65.39;99897.03;5534368;32;33965;-85
2023/04/19 14:10:49;;;;;;;16.05;14.10;;;;;;;16.84;66.51;99902.00;5534546;32;33921;-85
2023/04/19 14:13:53;;;;;;;18.70;13.07;;;;;;;16.95;66.10;99896.59;5534010;32;34115;-84
2023/04/19 14:16:56;;;;;;;18.87;12.07;;;;;;;16.43;67.13;99902.66;5543375;32;34002;-85
2023/04/19 14:19:58;;;;;;;16.92;12.57;;;;;;;17.04;66.33;99894.19;5547208;32;33781;-85
2023/04/19 14:23:02;;;;;;;17.55;12.07;;;;;;;17.45;63.10;99903.16;5538350;32;34485;-85
2023/04/19 14:26:05;;;;;;;15.38;11.82;;;;;;;16.91;63.83;99900.53;5553022;32;34059;-85
2023/04/19 14:29:08;;;;;;;15.32;11.38;;;;;;;16.62;63.81;99894.94;5535838;32;33813;-87
2023/04/19 14:32:10;;;;;;;14.10;10.98;;;;;;;16.84;62.89;99894.84;5533002;32;33927;-87
2023/04/19 14:35:29;;;;;;;15.02;11.57;;;;;;;16.82;63.27;99898.62;5537829;32;33833;-85
2023/04/19 14:38:32;;;;;;;14.00;11.18;;;;;;;16.97;63.30;99902.72;5530664;32;33956;-85
2023/04/19 14:41:35;;;;;;;17.92;11.35;;;;;;;16.97;62.65;99902.72;5530102;32;33622;-86
2023/04/19 14:44:39;;;;;;;12.98;10.10;;;;;;;17.46;61.51;99901.34;5530547;32;34515;-86
2023/04/19 14:47:42;;;;;;;13.75;10.52;;;;;;;17.39;61.32;99898.31;5531910;32;34776;-90
2023/04/19 14:50:44;;;;;;;14.02;9.73;;;;;;;17.35;61.60;99910.31;5535291;32;34462;-90
2023/04/19 14:53:47;;;;;;;13.25;9.43;;;;;;;17.55;59.92;99908.56;5539122;32;35445;-90
2023/04/19 14:56:51;;;;;;;12.10;9.10;;;;;;;17.22;60.78;99914.06;5538817;32;34277;-89
2023/04/19 14:59:56;;;;;;;11.73;8.82;;;;;;;17.34;60.39;99916.63;5548575;32;34157;-86
2023/04/19 15:03:00;;;;;;;11.48;8.90;;;;;;;16.79;62.13;99914.97;5550571;32;34850;-86
2023/04/19 15:06:04;;;;;;;13.73;9.50;;;;;;;17.01;61.15;99916.69;5550426;32;33996;-86
2023/04/19 15:09:06;;;;;;;11.93;8.75;;;;;;;16.90;61.97;99922.09;5549382;32;34015;-85
2023/04/19 15:12:09;;;;;;;12.05;8.57;;;;;;;16.54;63.67;99923.19;5544724;32;34050;-86
2023/04/19 15:15:12;;;;;;;15.20;8.73;;;;;;;16.40;62.50;99920.81;5532944;32;34866;-86
2023/04/19 15:18:15;;;;;;;12.30;8.35;;;;;;;16.52;62.70;99930.50;5531021;32;34077;-85
2023/04/19 15:21:24;;;;;;;11.85;8.70;;;;;;;16.09;63.56;99936.66;5530944;32;34292;-85
2023/04/19 15:24:27;;;;;;;11.48;8.27;;;;;;;16.27;62.97;99939.69;5535971;32;33872;-86
2023/04/19 15:27:30;;;;;;;9.82;7.82;;;;;;;16.56;62.96;99939.97;5533475;32;34886;-86
2023/04/19 15:30:33;;;;;;;8.75;7.12;;;;;;;16.48;63.58;99937.09;5531357;32;34164;-86
2023/04/19 15:33:36;;;;;;;10.50;7.43;;;;;;;16.01;63.40;99931.94;5532800;32;34140;-85
2023/04/19 15:36:39;;;;;;;9.45;6.65;;;;;;;15.77;64.17;99936.41;5531278;32;33831;-86
